sensor_id;sensor_type;location;lat;lon;timestamp;temperature;humidity
44037;DHT22;62488;-37.670;-63.532;2023-03-13T00:01:22;26.20;99.90
44037;DHT22;62488;-37.670;-63.532;2023-03-13T00:03:51;26.10;99.90
44037;DHT22;62488;-37.670;-63.532;2023-03-13T00:06:21;26.00;99.90
44037;DHT22;62488;-37.670;-63.532;2023-03-13T00:08:49;26.00;99.90
44037;DHT22;62488;-37.670;-63.532;2023-03-13T00:11:16;25.90;99.90
44037;DHT22;62488;-37.670;-63.532;2023-03-13T00:13:43;25.70;99.90
44037;DHT22;62488;-37.670;-63.532;2023-03-13T00:16:13;25.70;99.90
44037;DHT22;62488;-37.670;-63.532;2023-03-13T00:18:51;25.70;99.90
44037;DHT22;62488;-37.670;-63.532;2023-03-13T00:21:20;25.60;99.90
44037;DHT22;62488;-37.670;-63.532;2023-03-13T00:23:48;25.60;99.90
44037;DHT22;62488;-37.670;-63.532;2023-03-13T00:26:18;25.50;99.90
44037;DHT22;62488;-37.670;-63.532;2023-03-13T00:28:45;25.50;99.90
44037;DHT22;62488;-37.670;-63.532;2023-03-13T00:31:24;25.40;99.90
44037;DHT22;62488;-37.670;-63.532;2023-03-13T00:33:55;25.30;99.90
44037;DHT22;62488;-37.670;-63.532;2023-03-13T00:36:25;25.20;99.90
44037;DHT22;62488;-37.670;-63.532;2023-03-13T00:38:55;25.10;99.90
44037;DHT22;62488;-37.670;-63.532;2023-03-13T00:41:27;25.10;99.90
44037;DHT22;62488;-37.670;-63.532;2023-03-13T00:43:55;25.00;99.90
44037;DHT22;62488;-37.670;-63.532;2023-03-13T00:46:24;24.90;99.90
44037;DHT22;62488;-37.670;-63.532;2023-03-13T00:48:51;24.80;99.90
44037;DHT22;62488;-37.670;-63.532;2023-03-13T00:51:20;24.80;99.90
44037;DHT22;62488;-37.670;-63.532;2023-03-13T00:53:49;24.70;99.90
44037;DHT22;62488;-37.670;-63.532;2023-03-13T00:56:17;24.60;99.90
44037;DHT22;62488;-37.670;-63.532;2023-03-13T00:58:46;24.50;99.90
44037;DHT22;62488;-37.670;-63.532;2023-03-13T01:01:22;24.50;99.90
44037;DHT22;62488;-37.670;-63.532;2023-03-13T01:03:52;24.40;99.90
44037;DHT22;62488;-37.670;-63.532;2023-03-13T01:06:22;24.40;99.90
44037;DHT22;62488;-37.670;-63.532;2023-03-13T01:08:50;24.30;99.90
44037;DHT22;62488;-37.670;-63.532;2023-03-13T01:11:23;24.30;99.90
44037;DHT22;62488;-37.670;-63.532;2023-03-13T01:13:54;24.30;99.90
44037;DHT22;62488;-37.670;-63.532;2023-03-13T01:16:25;24.20;99.90
44037;DHT22;62488;-37.670;-63.532;2023-03-13T01:18:54;24.20;99.90
44037;DHT22;62488;-37.670;-63.532;2023-03-13T01:21:23;24.20;99.90
44037;DHT22;62488;-37.670;-63.532;2023-03-13T01:23:51;24.20;99.90
44037;DHT22;62488;-37.670;-63.532;2023-03-13T01:26:20;24.20;99.90
44037;DHT22;62488;-37.670;-63.532;2023-03-13T01:28:47;24.20;99.90
44037;DHT22;62488;-37.670;-63.532;2023-03-13T01:33:47;24.10;99.90
44037;DHT22;62488;-37.670;-63.532;2023-03-13T01:36:15;24.00;99.90
44037;DHT22;62488;-37.670;-63.532;2023-03-13T01:38:43;24.00;99.90
44037;DHT22;62488;-37.670;-63.532;2023-03-13T01:41:11;24.00;99.90
44037;DHT22;62488;-37.670;-63.532;2023-03-13T01:43:38;24.00;99.90
44037;DHT22;62488;-37.670;-63.532;2023-03-13T01:46:15;24.00;99.90
44037;DHT22;62488;-37.670;-63.532;2023-03-13T01:57:23;23.90;99.90
44037;DHT22;62488;-37.670;-63.532;2023-03-13T02:00:24;23.80;99.90
44037;DHT22;62488;-37.670;-63.532;2023-03-13T02:02:55;23.80;99.90
44037;DHT22;62488;-37.670;-63.532;2023-03-13T02:05:25;23.80;99.90
44037;DHT22;62488;-37.670;-63.532;2023-03-13T02:08:06;23.80;99.90
44037;DHT22;62488;-37.670;-63.532;2023-03-13T02:10:41;23.80;99.90
44037;DHT22;62488;-37.670;-63.532;2023-03-13T02:13:11;23.70;99.90
44037;DHT22;62488;-37.670;-63.532;2023-03-13T02:15:40;23.70;99.90
44037;DHT22;62488;-37.670;-63.532;2023-03-13T02:18:07;23.70;99.90
44037;DHT22;62488;-37.670;-63.532;2023-03-13T02:20:34;23.60;99.90
44037;DHT22;62488;-37.670;-63.532;2023-03-13T02:25:51;23.50;99.90
44037;DHT22;62488;-37.670;-63.532;2023-03-13T02:30:54;23.50;99.90
44037;DHT22;62488;-37.670;-63.532;2023-03-13T02:33:31;23.50;99.90
44037;DHT22;62488;-37.670;-63.532;2023-03-13T02:36:02;23.40;99.90
44037;DHT22;62488;-37.670;-63.532;2023-03-13T02:38:31;23.40;99.90
44037;DHT22;62488;-37.670;-63.532;2023-03-13T02:41:01;23.40;99.90
44037;DHT22;62488;-37.670;-63.532;2023-03-13T02:43:29;23.40;99.90
44037;DHT22;62488;-37.670;-63.532;2023-03-13T02:46:12;23.40;99.90
44037;DHT22;62488;-37.670;-63.532;2023-03-13T02:48:45;23.40;99.90
44037;DHT22;62488;-37.670;-63.532;2023-03-13T02:51:37;23.40;99.90
44037;DHT22;62488;-37.670;-63.532;2023-03-13T02:54:10;23.40;99.90
44037;DHT22;62488;-37.670;-63.532;2023-03-13T02:56:39;23.30;99.90
44037;DHT22;62488;-37.670;-63.532;2023-03-13T02:59:07;23.30;99.90
44037;DHT22;62488;-37.670;-63.532;2023-03-13T03:01:34;23.30;99.90
44037;DHT22;62488;-37.670;-63.532;2023-03-13T03:04:01;23.30;99.90
44037;DHT22;62488;-37.670;-63.532;2023-03-13T03:06:28;23.30;99.90
44037;DHT22;62488;-37.670;-63.532;2023-03-13T03:08:56;23.30;99.90
44037;DHT22;62488;-37.670;-63.532;2023-03-13T03:11:23;23.30;99.90
44037;DHT22;62488;-37.670;-63.532;2023-03-13T03:13:50;23.30;99.90
44037;DHT22;62488;-37.670;-63.532;2023-03-13T03:16:17;23.30;99.90
44037;DHT22;62488;-37.670;-63.532;2023-03-13T03:18:44;23.30;99.90
44037;DHT22;62488;-37.670;-63.532;2023-03-13T03:21:12;23.30;99.90
44037;DHT22;62488;-37.670;-63.532;2023-03-13T03:23:39;23.20;99.90
44037;DHT22;62488;-37.670;-63.532;2023-03-13T03:26:08;23.10;99.90
44037;DHT22;62488;-37.670;-63.532;2023-03-13T03:28:35;23.10;99.90
44037;DHT22;62488;-37.670;-63.532;2023-03-13T03:31:07;23.10;99.90
44037;DHT22;62488;-37.670;-63.532;2023-03-13T03:33:35;23.10;99.90
44037;DHT22;62488;-37.670;-63.532;2023-03-13T03:36:05;23.10;99.90
44037;DHT22;62488;-37.670;-63.532;2023-03-13T03:38:33;23.10;99.90
44037;DHT22;62488;-37.670;-63.532;2023-03-13T03:41:00;23.10;99.90
44037;DHT22;62488;-37.670;-63.532;2023-03-13T03:43:27;23.10;99.90
44037;DHT22;62488;-37.670;-63.532;2023-03-13T03:45:54;23.00;99.90
44037;DHT22;62488;-37.670;-63.532;2023-03-13T03:48:21;23.00;99.90
44037;DHT22;62488;-37.670;-63.532;2023-03-13T03:50:48;23.00;99.90
44037;DHT22;62488;-37.670;-63.532;2023-03-13T03:53:15;23.00;99.90
44037;DHT22;62488;-37.670;-63.532;2023-03-13T03:55:43;23.00;99.90
44037;DHT22;62488;-37.670;-63.532;2023-03-13T03:58:10;23.00;99.90
44037;DHT22;62488;-37.670;-63.532;2023-03-13T04:00:37;23.10;99.90
44037;DHT22;62488;-37.670;-63.532;2023-03-13T04:03:04;23.20;99.90
44037;DHT22;62488;-37.670;-63.532;2023-03-13T04:05:31;23.20;99.90
44037;DHT22;62488;-37.670;-63.532;2023-03-13T04:07:58;23.40;99.90
44037;DHT22;62488;-37.670;-63.532;2023-03-13T04:10:25;23.40;99.90
44037;DHT22;62488;-37.670;-63.532;2023-03-13T04:12:52;23.50;99.90
44037;DHT22;62488;-37.670;-63.532;2023-03-13T04:15:19;23.60;99.90
44037;DHT22;62488;-37.670;-63.532;2023-03-13T04:17:46;23.70;99.90
44037;DHT22;62488;-37.670;-63.532;2023-03-13T04:20:13;23.80;99.90
44037;DHT22;62488;-37.670;-63.532;2023-03-13T04:22:40;24.00;99.90
44037;DHT22;62488;-37.670;-63.532;2023-03-13T04:25:08;24.10;99.90
44037;DHT22;62488;-37.670;-63.532;2023-03-13T04:27:36;24.20;99.90
44037;DHT22;62488;-37.670;-63.532;2023-03-13T04:30:03;24.40;99.90
44037;DHT22;62488;-37.670;-63.532;2023-03-13T04:32:30;24.50;99.90
44037;DHT22;62488;-37.670;-63.532;2023-03-13T04:34:57;24.60;99.90
44037;DHT22;62488;-37.670;-63.532;2023-03-13T04:37:24;24.60;99.90
44037;DHT22;62488;-37.670;-63.532;2023-03-13T04:39:51;24.70;99.90
44037;DHT22;62488;-37.670;-63.532;2023-03-13T04:42:18;24.70;99.90
44037;DHT22;62488;-37.670;-63.532;2023-03-13T04:44:46;24.90;99.90
44037;DHT22;62488;-37.670;-63.532;2023-03-13T04:47:13;25.00;99.90
44037;DHT22;62488;-37.670;-63.532;2023-03-13T04:49:40;25.10;99.90
44037;DHT22;62488;-37.670;-63.532;2023-03-13T04:52:07;25.30;99.90
44037;DHT22;62488;-37.670;-63.532;2023-03-13T04:54:34;25.40;99.90
44037;DHT22;62488;-37.670;-63.532;2023-03-13T04:57:01;25.40;99.90
44037;DHT22;62488;-37.670;-63.532;2023-03-13T04:59:28;25.40;99.90
44037;DHT22;62488;-37.670;-63.532;2023-03-13T05:01:55;25.50;99.90
44037;DHT22;62488;-37.670;-63.532;2023-03-13T05:04:22;25.60;99.90
44037;DHT22;62488;-37.670;-63.532;2023-03-13T05:06:49;25.60;99.90
44037;DHT22;62488;-37.670;-63.532;2023-03-13T05:09:16;25.70;99.90
44037;DHT22;62488;-37.670;-63.532;2023-03-13T05:11:43;25.90;99.90
44037;DHT22;62488;-37.670;-63.532;2023-03-13T05:14:10;26.00;99.90
44037;DHT22;62488;-37.670;-63.532;2023-03-13T05:16:39;26.10;99.90
44037;DHT22;62488;-37.670;-63.532;2023-03-13T05:19:06;26.20;99.90
44037;DHT22;62488;-37.670;-63.532;2023-03-13T05:21:33;26.20;99.90
44037;DHT22;62488;-37.670;-63.532;2023-03-13T05:24:00;26.30;99.90
44037;DHT22;62488;-37.670;-63.532;2023-03-13T05:26:27;26.20;99.90
44037;DHT22;62488;-37.670;-63.532;2023-03-13T05:28:54;26.20;99.90
44037;DHT22;62488;-37.670;-63.532;2023-03-13T05:31:21;26.20;99.90
44037;DHT22;62488;-37.670;-63.532;2023-03-13T05:33:48;26.30;99.90
44037;DHT22;62488;-37.670;-63.532;2023-03-13T05:36:15;26.40;99.90
44037;DHT22;62488;-37.670;-63.532;2023-03-13T05:38:42;25.60;99.90
44037;DHT22;62488;-37.670;-63.532;2023-03-13T05:41:09;24.50;99.90
44037;DHT22;62488;-37.670;-63.532;2023-03-13T05:43:36;23.90;99.90
44037;DHT22;62488;-37.670;-63.532;2023-03-13T05:46:03;23.50;99.90
44037;DHT22;62488;-37.670;-63.532;2023-03-13T05:48:33;23.30;99.90
44037;DHT22;62488;-37.670;-63.532;2023-03-13T05:51:00;23.00;99.90
44037;DHT22;62488;-37.670;-63.532;2023-03-13T05:53:27;23.10;99.90
44037;DHT22;62488;-37.670;-63.532;2023-03-13T05:55:54;23.10;99.90
44037;DHT22;62488;-37.670;-63.532;2023-03-13T05:58:21;23.00;99.90
44037;DHT22;62488;-37.670;-63.532;2023-03-13T06:00:48;22.50;99.90
44037;DHT22;62488;-37.670;-63.532;2023-03-13T06:03:15;22.00;99.90
44037;DHT22;62488;-37.670;-63.532;2023-03-13T06:05:42;21.80;99.90
44037;DHT22;62488;-37.670;-63.532;2023-03-13T06:08:09;21.70;99.90
44037;DHT22;62488;-37.670;-63.532;2023-03-13T06:10:36;21.40;99.90
44037;DHT22;62488;-37.670;-63.532;2023-03-13T06:13:03;20.90;99.90
44037;DHT22;62488;-37.670;-63.532;2023-03-13T06:15:30;20.50;99.90
44037;DHT22;62488;-37.670;-63.532;2023-03-13T06:17:58;20.40;99.90
44037;DHT22;62488;-37.670;-63.532;2023-03-13T06:20:25;20.20;99.90
44037;DHT22;62488;-37.670;-63.532;2023-03-13T06:22:52;20.00;99.90
44037;DHT22;62488;-37.670;-63.532;2023-03-13T06:25:19;19.90;99.90
44037;DHT22;62488;-37.670;-63.532;2023-03-13T06:27:47;19.90;99.90
44037;DHT22;62488;-37.670;-63.532;2023-03-13T06:30:14;19.90;99.90
44037;DHT22;62488;-37.670;-63.532;2023-03-13T06:32:41;19.80;99.90
44037;DHT22;62488;-37.670;-63.532;2023-03-13T06:35:08;19.80;99.90
44037;DHT22;62488;-37.670;-63.532;2023-03-13T06:37:36;19.70;99.90
44037;DHT22;62488;-37.670;-63.532;2023-03-13T06:40:03;19.70;99.90
44037;DHT22;62488;-37.670;-63.532;2023-03-13T06:42:31;19.70;99.90
44037;DHT22;62488;-37.670;-63.532;2023-03-13T06:44:58;19.60;99.90
44037;DHT22;62488;-37.670;-63.532;2023-03-13T06:47:25;19.60;99.90
44037;DHT22;62488;-37.670;-63.532;2023-03-13T06:49:52;19.60;99.90
44037;DHT22;62488;-37.670;-63.532;2023-03-13T06:52:19;19.60;99.90
44037;DHT22;62488;-37.670;-63.532;2023-03-13T06:54:46;19.60;99.90
44037;DHT22;62488;-37.670;-63.532;2023-03-13T06:57:13;19.60;99.90
44037;DHT22;62488;-37.670;-63.532;2023-03-13T06:59:40;19.50;99.90
44037;DHT22;62488;-37.670;-63.532;2023-03-13T07:02:10;19.50;99.90
44037;DHT22;62488;-37.670;-63.532;2023-03-13T07:04:37;19.40;99.90
44037;DHT22;62488;-37.670;-63.532;2023-03-13T07:07:04;19.40;99.90
44037;DHT22;62488;-37.670;-63.532;2023-03-13T07:09:32;19.30;99.90
44037;DHT22;62488;-37.670;-63.532;2023-03-13T07:11:59;19.20;99.90
44037;DHT22;62488;-37.670;-63.532;2023-03-13T07:14:28;19.20;99.90
44037;DHT22;62488;-37.670;-63.532;2023-03-13T07:16:58;19.10;99.90
44037;DHT22;62488;-37.670;-63.532;2023-03-13T07:19:29;19.10;99.90
44037;DHT22;62488;-37.670;-63.532;2023-03-13T07:21:55;19.00;99.90
44037;DHT22;62488;-37.670;-63.532;2023-03-13T07:24:22;19.10;99.90
44037;DHT22;62488;-37.670;-63.532;2023-03-13T07:26:50;19.00;99.90
44037;DHT22;62488;-37.670;-63.532;2023-03-13T07:29:17;19.00;99.90
44037;DHT22;62488;-37.670;-63.532;2023-03-13T07:31:44;19.00;99.90
44037;DHT22;62488;-37.670;-63.532;2023-03-13T07:34:11;19.00;99.90
44037;DHT22;62488;-37.670;-63.532;2023-03-13T07:36:38;18.90;99.90
44037;DHT22;62488;-37.670;-63.532;2023-03-13T07:39:07;18.90;99.90
44037;DHT22;62488;-37.670;-63.532;2023-03-13T07:41:34;18.90;99.90
44037;DHT22;62488;-37.670;-63.532;2023-03-13T07:44:01;18.90;99.90
44037;DHT22;62488;-37.670;-63.532;2023-03-13T07:46:28;18.90;99.90
44037;DHT22;62488;-37.670;-63.532;2023-03-13T07:48:55;18.90;99.90
44037;DHT22;62488;-37.670;-63.532;2023-03-13T07:51:24;18.90;99.90
44037;DHT22;62488;-37.670;-63.532;2023-03-13T07:53:52;19.00;99.90
44037;DHT22;62488;-37.670;-63.532;2023-03-13T07:56:23;19.00;99.90
44037;DHT22;62488;-37.670;-63.532;2023-03-13T07:58:51;19.00;99.90
44037;DHT22;62488;-37.670;-63.532;2023-03-13T08:01:20;19.00;99.90
44037;DHT22;62488;-37.670;-63.532;2023-03-13T08:03:48;19.00;99.90
44037;DHT22;62488;-37.670;-63.532;2023-03-13T08:06:20;19.10;99.90
44037;DHT22;62488;-37.670;-63.532;2023-03-13T08:08:49;19.10;99.90
44037;DHT22;62488;-37.670;-63.532;2023-03-13T08:11:21;19.00;99.90
44037;DHT22;62488;-37.670;-63.532;2023-03-13T08:13:51;19.00;99.90
44037;DHT22;62488;-37.670;-63.532;2023-03-13T08:16:31;19.00;99.90
44037;DHT22;62488;-37.670;-63.532;2023-03-13T08:19:00;19.00;99.90
44037;DHT22;62488;-37.670;-63.532;2023-03-13T08:21:32;19.00;99.90
44037;DHT22;62488;-37.670;-63.532;2023-03-13T08:24:02;18.90;99.90
44037;DHT22;62488;-37.670;-63.532;2023-03-13T08:26:31;18.90;99.90
44037;DHT22;62488;-37.670;-63.532;2023-03-13T08:29:10;18.80;99.90
44037;DHT22;62488;-37.670;-63.532;2023-03-13T08:31:46;18.70;99.90
44037;DHT22;62488;-37.670;-63.532;2023-03-13T08:34:14;18.70;99.90
44037;DHT22;62488;-37.670;-63.532;2023-03-13T08:36:42;18.70;99.90
44037;DHT22;62488;-37.670;-63.532;2023-03-13T08:39:15;18.60;99.90
44037;DHT22;62488;-37.670;-63.532;2023-03-13T08:41:42;18.60;99.90
44037;DHT22;62488;-37.670;-63.532;2023-03-13T08:44:14;18.60;99.90
44037;DHT22;62488;-37.670;-63.532;2023-03-13T08:46:42;18.50;99.90
44037;DHT22;62488;-37.670;-63.532;2023-03-13T08:49:09;18.50;99.90
44037;DHT22;62488;-37.670;-63.532;2023-03-13T08:51:37;18.50;99.90
44037;DHT22;62488;-37.670;-63.532;2023-03-13T08:54:05;18.50;99.90
44037;DHT22;62488;-37.670;-63.532;2023-03-13T08:56:32;18.50;99.90
44037;DHT22;62488;-37.670;-63.532;2023-03-13T08:59:01;18.40;99.90
44037;DHT22;62488;-37.670;-63.532;2023-03-13T09:01:33;18.40;99.90
44037;DHT22;62488;-37.670;-63.532;2023-03-13T09:04:00;18.30;99.90
44037;DHT22;62488;-37.670;-63.532;2023-03-13T09:06:27;18.30;99.90
44037;DHT22;62488;-37.670;-63.532;2023-03-13T09:08:56;18.20;99.90
44037;DHT22;62488;-37.670;-63.532;2023-03-13T09:11:24;18.20;99.90
44037;DHT22;62488;-37.670;-63.532;2023-03-13T09:13:51;18.20;99.90
44037;DHT22;62488;-37.670;-63.532;2023-03-13T09:16:20;18.20;99.90
44037;DHT22;62488;-37.670;-63.532;2023-03-13T09:18:48;18.20;99.90
44037;DHT22;62488;-37.670;-63.532;2023-03-13T09:21:18;18.10;99.90
44037;DHT22;62488;-37.670;-63.532;2023-03-13T09:23:45;18.10;99.90
44037;DHT22;62488;-37.670;-63.532;2023-03-13T09:26:13;18.20;99.90
44037;DHT22;62488;-37.670;-63.532;2023-03-13T09:28:40;18.20;99.90
44037;DHT22;62488;-37.670;-63.532;2023-03-13T09:31:18;18.10;99.90
44037;DHT22;62488;-37.670;-63.532;2023-03-13T09:33:47;18.10;99.90
44037;DHT22;62488;-37.670;-63.532;2023-03-13T09:36:17;18.20;99.90
44037;DHT22;62488;-37.670;-63.532;2023-03-13T09:38:44;18.10;99.90
44037;DHT22;62488;-37.670;-63.532;2023-03-13T09:43:47;18.10;99.90
44037;DHT22;62488;-37.670;-63.532;2023-03-13T09:47:09;18.10;99.90
44037;DHT22;62488;-37.670;-63.532;2023-03-13T09:51:46;18.10;99.90
44037;DHT22;62488;-37.670;-63.532;2023-03-13T09:54:32;18.10;99.90
44037;DHT22;62488;-37.670;-63.532;2023-03-13T09:57:11;18.00;99.90
44037;DHT22;62488;-37.670;-63.532;2023-03-13T10:02:31;18.20;99.90
44037;DHT22;62488;-37.670;-63.532;2023-03-13T10:07:35;18.20;99.90
44037;DHT22;62488;-37.670;-63.532;2023-03-13T10:10:08;18.30;99.90
44037;DHT22;62488;-37.670;-63.532;2023-03-13T10:12:43;18.30;99.90
44037;DHT22;62488;-37.670;-63.532;2023-03-13T10:16:21;18.30;99.90
44037;DHT22;62488;-37.670;-63.532;2023-03-13T10:18:21;18.40;99.90
44037;DHT22;62488;-37.670;-63.532;2023-03-13T10:20:59;18.50;99.90
44037;DHT22;62488;-37.670;-63.532;2023-03-13T10:26:33;18.60;99.90
44037;DHT22;62488;-37.670;-63.532;2023-03-13T10:29:22;18.70;99.90
44037;DHT22;62488;-37.670;-63.532;2023-03-13T10:32:03;18.80;99.90
44037;DHT22;62488;-37.670;-63.532;2023-03-13T10:34:56;18.90;99.90
44037;DHT22;62488;-37.670;-63.532;2023-03-13T10:37:41;19.00;99.90
44037;DHT22;62488;-37.670;-63.532;2023-03-13T10:40:26;19.10;99.90
44037;DHT22;62488;-37.670;-63.532;2023-03-13T10:43:01;19.10;99.90
44037;DHT22;62488;-37.670;-63.532;2023-03-13T10:45:32;19.10;99.90
44037;DHT22;62488;-37.670;-63.532;2023-03-13T10:48:12;19.00;99.90
44037;DHT22;62488;-37.670;-63.532;2023-03-13T10:50:47;19.00;99.90
44037;DHT22;62488;-37.670;-63.532;2023-03-13T10:56:13;18.90;99.90
44037;DHT22;62488;-37.670;-63.532;2023-03-13T10:58:49;18.90;99.90
44037;DHT22;62488;-37.670;-63.532;2023-03-13T11:01:20;18.90;99.90
44037;DHT22;62488;-37.670;-63.532;2023-03-13T11:03:47;18.90;99.90
44037;DHT22;62488;-37.670;-63.532;2023-03-13T11:06:33;18.80;99.90
44037;DHT22;62488;-37.670;-63.532;2023-03-13T11:09:17;18.90;99.90
44037;DHT22;62488;-37.670;-63.532;2023-03-13T11:11:54;18.90;99.90
44037;DHT22;62488;-37.670;-63.532;2023-03-13T11:14:23;18.90;99.90
44037;DHT22;62488;-37.670;-63.532;2023-03-13T11:22:46;18.90;99.90
44037;DHT22;62488;-37.670;-63.532;2023-03-13T11:25:18;19.00;99.90
44037;DHT22;62488;-37.670;-63.532;2023-03-13T11:28:05;19.00;99.90
44037;DHT22;62488;-37.670;-63.532;2023-03-13T11:38:42;19.30;99.90
44037;DHT22;62488;-37.670;-63.532;2023-03-13T11:41:19;19.40;99.90
44037;DHT22;62488;-37.670;-63.532;2023-03-13T12:01:27;19.80;99.90
44037;DHT22;62488;-37.670;-63.532;2023-03-13T12:04:22;19.90;99.90
44037;DHT22;62488;-37.670;-63.532;2023-03-13T12:06:58;20.00;99.90
44037;DHT22;62488;-37.670;-63.532;2023-03-13T12:09:27;20.10;99.90
44037;DHT22;62488;-37.670;-63.532;2023-03-13T12:12:02;20.10;99.90
44037;DHT22;62488;-37.670;-63.532;2023-03-13T12:17:37;20.10;99.90
44037;DHT22;62488;-37.670;-63.532;2023-03-13T12:28:47;20.30;99.90
44037;DHT22;62488;-37.670;-63.532;2023-03-13T12:31:47;20.50;99.90
44037;DHT22;62488;-37.670;-63.532;2023-03-13T12:39:44;20.70;99.90
44037;DHT22;62488;-37.670;-63.532;2023-03-13T12:45:19;21.00;99.90
44037;DHT22;62488;-37.670;-63.532;2023-03-13T12:48:14;21.20;99.90
44037;DHT22;62488;-37.670;-63.532;2023-03-13T12:51:11;21.20;99.90
44037;DHT22;62488;-37.670;-63.532;2023-03-13T12:54:16;21.10;99.90
44037;DHT22;62488;-37.670;-63.532;2023-03-13T12:56:59;21.10;99.90
44037;DHT22;62488;-37.670;-63.532;2023-03-13T12:59:39;21.10;99.90
44037;DHT22;62488;-37.670;-63.532;2023-03-13T13:02:24;21.20;99.90
44037;DHT22;62488;-37.670;-63.532;2023-03-13T13:04:54;21.30;99.90
44037;DHT22;62488;-37.670;-63.532;2023-03-13T13:07:34;21.50;99.90
44037;DHT22;62488;-37.670;-63.532;2023-03-13T13:12:46;21.80;99.90
44037;DHT22;62488;-37.670;-63.532;2023-03-13T13:15:25;21.80;99.90
44037;DHT22;62488;-37.670;-63.532;2023-03-13T13:29:00;22.10;99.90
44037;DHT22;62488;-37.670;-63.532;2023-03-13T13:37:23;22.20;99.90
44037;DHT22;62488;-37.670;-63.532;2023-03-13T13:39:54;22.10;99.90
44037;DHT22;62488;-37.670;-63.532;2023-03-13T13:47:50;22.20;99.90
44037;DHT22;62488;-37.670;-63.532;2023-03-13T13:52:49;22.20;99.90
44037;DHT22;62488;-37.670;-63.532;2023-03-13T13:58:22;22.30;99.90
44037;DHT22;62488;-37.670;-63.532;2023-03-13T14:01:00;22.40;99.90
44037;DHT22;62488;-37.670;-63.532;2023-03-13T14:03:32;22.80;99.90
44037;DHT22;62488;-37.670;-63.532;2023-03-13T14:06:30;23.00;99.90
44037;DHT22;62488;-37.670;-63.532;2023-03-13T14:12:28;23.00;99.90
44037;DHT22;62488;-37.670;-63.532;2023-03-13T14:15:28;22.70;99.90
44037;DHT22;62488;-37.670;-63.532;2023-03-13T14:18:00;22.70;99.90
44037;DHT22;62488;-37.670;-63.532;2023-03-13T14:31:52;22.60;99.90
44037;DHT22;62488;-37.670;-63.532;2023-03-13T14:34:20;25.50;99.90
44037;DHT22;62488;-37.670;-63.532;2023-03-13T14:36:55;25.60;99.90
44037;DHT22;62488;-37.670;-63.532;2023-03-13T14:39:41;25.90;99.90
44037;DHT22;62488;-37.670;-63.532;2023-03-13T14:42:13;25.20;99.90
44037;DHT22;62488;-37.670;-63.532;2023-03-13T14:44:42;24.70;99.90
44037;DHT22;62488;-37.670;-63.532;2023-03-13T14:47:38;24.60;99.90
44037;DHT22;62488;-37.670;-63.532;2023-03-13T14:50:11;23.90;99.90
44037;DHT22;62488;-37.670;-63.532;2023-03-13T14:52:48;23.90;99.90
44037;DHT22;62488;-37.670;-63.532;2023-03-13T14:57:56;24.30;99.90
44037;DHT22;62488;-37.670;-63.532;2023-03-13T15:05:44;26.00;99.90
44037;DHT22;62488;-37.670;-63.532;2023-03-13T15:08:17;26.00;99.90
44037;DHT22;62488;-37.670;-63.532;2023-03-13T15:10:45;25.80;99.90
44037;DHT22;62488;-37.670;-63.532;2023-03-13T15:15:45;25.80;99.90
44037;DHT22;62488;-37.670;-63.532;2023-03-13T15:18:24;25.70;99.90
44037;DHT22;62488;-37.670;-63.532;2023-03-13T15:21:27;25.90;99.90
44037;DHT22;62488;-37.670;-63.532;2023-03-13T15:26:25;26.00;99.90
44037;DHT22;62488;-37.670;-63.532;2023-03-13T15:28:52;26.00;99.90
44037;DHT22;62488;-37.670;-63.532;2023-03-13T15:31:22;26.00;99.90
44037;DHT22;62488;-37.670;-63.532;2023-03-13T15:33:58;26.00;99.90
44037;DHT22;62488;-37.670;-63.532;2023-03-13T15:36:27;26.00;99.90
44037;DHT22;62488;-37.670;-63.532;2023-03-13T15:38:54;25.90;99.90
44037;DHT22;62488;-37.670;-63.532;2023-03-13T15:41:22;25.80;99.90
44037;DHT22;62488;-37.670;-63.532;2023-03-13T15:43:49;25.80;99.90
44037;DHT22;62488;-37.670;-63.532;2023-03-13T15:46:18;25.80;99.90
44037;DHT22;62488;-37.670;-63.532;2023-03-13T15:48:46;25.80;99.90
44037;DHT22;62488;-37.670;-63.532;2023-03-13T15:51:14;25.70;99.90
44037;DHT22;62488;-37.670;-63.532;2023-03-13T15:53:45;25.40;99.90
44037;DHT22;62488;-37.670;-63.532;2023-03-13T15:56:18;25.60;99.90
44037;DHT22;62488;-37.670;-63.532;2023-03-13T15:58:46;25.80;99.90
44037;DHT22;62488;-37.670;-63.532;2023-03-13T16:01:17;25.80;99.90
44037;DHT22;62488;-37.670;-63.532;2023-03-13T16:03:44;25.80;99.90
44037;DHT22;62488;-37.670;-63.532;2023-03-13T16:06:21;26.00;99.90
44037;DHT22;62488;-37.670;-63.532;2023-03-13T16:08:57;26.20;99.90
44037;DHT22;62488;-37.670;-63.532;2023-03-13T16:11:27;26.80;99.90
44037;DHT22;62488;-37.670;-63.532;2023-03-13T16:13:55;27.60;99.90
44037;DHT22;62488;-37.670;-63.532;2023-03-13T16:16:25;28.30;99.90
44037;DHT22;62488;-37.670;-63.532;2023-03-13T16:18:55;28.50;99.90
44037;DHT22;62488;-37.670;-63.532;2023-03-13T16:21:26;28.50;99.90
44037;DHT22;62488;-37.670;-63.532;2023-03-13T16:23:54;28.50;99.90
44037;DHT22;62488;-37.670;-63.532;2023-03-13T16:26:24;28.30;99.90
44037;DHT22;62488;-37.670;-63.532;2023-03-13T16:28:52;28.30;99.90
44037;DHT22;62488;-37.670;-63.532;2023-03-13T16:31:22;27.80;99.90
44037;DHT22;62488;-37.670;-63.532;2023-03-13T16:33:50;27.30;99.90
44037;DHT22;62488;-37.670;-63.532;2023-03-13T16:36:19;27.50;99.90
44037;DHT22;62488;-37.670;-63.532;2023-03-13T16:38:47;27.90;99.90
44037;DHT22;62488;-37.670;-63.532;2023-03-13T16:41:16;27.60;99.90
44037;DHT22;62488;-37.670;-63.532;2023-03-13T16:43:43;27.30;99.90
44037;DHT22;62488;-37.670;-63.532;2023-03-13T16:48:45;26.80;99.90
44037;DHT22;62488;-37.670;-63.532;2023-03-13T16:51:31;26.40;99.90
44037;DHT22;62488;-37.670;-63.532;2023-03-13T16:53:59;26.00;99.90
44037;DHT22;62488;-37.670;-63.532;2023-03-13T16:56:37;25.60;99.90
44037;DHT22;62488;-37.670;-63.532;2023-03-13T16:59:06;25.80;99.90
44037;DHT22;62488;-37.670;-63.532;2023-03-13T17:01:36;26.10;99.90
44037;DHT22;62488;-37.670;-63.532;2023-03-13T17:04:03;26.20;99.90
44037;DHT22;62488;-37.670;-63.532;2023-03-13T17:06:35;25.80;99.90
44037;DHT22;62488;-37.670;-63.532;2023-03-13T17:09:05;26.00;99.90
44037;DHT22;62488;-37.670;-63.532;2023-03-13T17:11:36;26.70;99.90
44037;DHT22;62488;-37.670;-63.532;2023-03-13T17:14:03;27.60;99.90
44037;DHT22;62488;-37.670;-63.532;2023-03-13T17:16:32;28.00;99.90
44037;DHT22;62488;-37.670;-63.532;2023-03-13T17:19:00;28.00;99.90
44037;DHT22;62488;-37.670;-63.532;2023-03-13T17:21:29;27.80;99.90
44037;DHT22;62488;-37.670;-63.532;2023-03-13T17:24:01;27.60;99.90
44037;DHT22;62488;-37.670;-63.532;2023-03-13T17:26:33;27.60;99.90
44037;DHT22;62488;-37.670;-63.532;2023-03-13T17:29:00;27.80;99.90
44037;DHT22;62488;-37.670;-63.532;2023-03-13T17:31:28;27.70;99.90
44037;DHT22;62488;-37.670;-63.532;2023-03-13T17:34:06;28.20;99.90
44037;DHT22;62488;-37.670;-63.532;2023-03-13T17:36:34;28.10;99.90